createdAt,value
2023-01-19T00:01:14.328Z,31.04
2023-01-19T00:03:18.760Z,30.94
2023-01-19T00:05:23.145Z,31.09
2023-01-19T00:07:27.477Z,31.3
2023-01-19T00:09:31.941Z,30.94
2023-01-19T00:11:36.304Z,31.31
2023-01-19T00:13:40.643Z,31.39
2023-01-19T00:15:45.357Z,31.42
2023-01-19T00:17:49.743Z,31.48
2023-01-19T00:19:54.174Z,31.19
2023-01-19T00:21:58.741Z,31.47
2023-01-19T00:24:03.082Z,31.57
2023-01-19T00:26:07.475Z,31.55
2023-01-19T00:28:11.802Z,31.72
2023-01-19T00:30:16.165Z,32.11
2023-01-19T00:32:20.569Z,31.72
2023-01-19T00:34:24.882Z,32.06
2023-01-19T00:36:29.229Z,31.87
2023-01-19T00:38:33.604Z,31.79
2023-01-19T00:40:37.950Z,31.65
2023-01-19T00:42:42.337Z,31.64
2023-01-19T00:44:46.650Z,31.7
2023-01-19T00:46:51.049Z,31.73
2023-01-19T00:48:55.375Z,31.73
2023-01-19T00:50:59.728Z,31.36
2023-01-19T00:53:05.021Z,31.34
2023-01-19T00:55:09.349Z,31.59
2023-01-19T00:57:13.760Z,31.38
2023-01-19T00:59:18.137Z,31.33
2023-01-19T01:01:47.849Z,31.64
2023-01-19T01:03:52.232Z,31.69
2023-01-19T01:05:56.550Z,31.7
2023-01-19T01:08:00.913Z,31.7
2023-01-19T01:10:05.239Z,31.74
2023-01-19T01:12:09.564Z,31.75
2023-01-19T01:14:14.094Z,31.72
2023-01-19T01:16:18.678Z,31.73
2023-01-19T01:18:23.050Z,31.61
2023-01-19T01:20:27.506Z,31.51
2023-01-19T01:22:31.869Z,31.9
2023-01-19T01:24:36.317Z,31.63
2023-01-19T01:26:40.749Z,31.76
2023-01-19T01:28:45.059Z,31.65
2023-01-19T01:30:49.630Z,31.67
2023-01-19T01:32:53.985Z,31.59
2023-01-19T01:34:58.367Z,31.63
2023-01-19T01:37:02.680Z,31.59
2023-01-19T01:39:06.998Z,31.51
2023-01-19T01:41:11.372Z,31.66
2023-01-19T01:43:15.790Z,31.63
2023-01-19T01:45:20.124Z,31.77
2023-01-19T01:47:24.444Z,31.76
2023-01-19T01:49:28.785Z,31.6
2023-01-19T01:51:33.114Z,31.7
2023-01-19T01:53:37.445Z,31.54
2023-01-19T01:55:41.915Z,31.55
2023-01-19T01:57:46.318Z,31.71
2023-01-19T01:59:50.645Z,31.59
2023-01-19T02:01:56.586Z,31.47
2023-01-19T02:04:01.153Z,31.61
2023-01-19T02:06:05.482Z,31.5
2023-01-19T02:08:09.926Z,31.58
2023-01-19T02:10:14.516Z,31.56
2023-01-19T02:12:18.847Z,31.58
2023-01-19T02:14:23.179Z,31.61
2023-01-19T02:16:27.694Z,31.64
2023-01-19T02:18:32.093Z,31.75
2023-01-19T02:20:36.415Z,31.68
2023-01-19T02:22:40.762Z,31.85
2023-01-19T02:24:45.138Z,31.68
2023-01-19T02:26:49.487Z,31.5
2023-01-19T02:28:53.805Z,31.75
2023-01-19T02:30:58.314Z,31.8
2023-01-19T02:33:04.054Z,31.79
2023-01-19T02:35:08.369Z,32.01
2023-01-19T02:37:12.756Z,32.01
2023-01-19T02:39:17.136Z,32.02
2023-01-19T02:41:21.466Z,31.89
2023-01-19T02:43:25.844Z,31.99
2023-01-19T02:45:30.157Z,31.87
2023-01-19T02:47:34.569Z,31.93
2023-01-19T02:49:38.882Z,31.93
2023-01-19T02:51:43.271Z,31.87
2023-01-19T02:53:47.686Z,31.72
2023-01-19T02:55:52.146Z,31.88
2023-01-19T02:57:56.500Z,31.85
2023-01-19T03:00:00.841Z,31.74
2023-01-19T03:02:05.677Z,31.91
2023-01-19T03:04:10.047Z,31.78
2023-01-19T03:06:14.479Z,31.79
2023-01-19T03:08:18.793Z,31.7
2023-01-19T03:10:23.149Z,31.82
2023-01-19T03:12:27.546Z,31.95
2023-01-19T03:14:31.971Z,31.72
2023-01-19T03:16:36.595Z,31.71
2023-01-19T03:18:40.980Z,31.73
2023-01-19T03:20:45.320Z,31.72
2023-01-19T03:22:49.637Z,31.93
2023-01-19T03:24:53.959Z,31.86
2023-01-19T03:26:58.254Z,31.91
2023-01-19T03:29:02.576Z,31.88
2023-01-19T03:31:07.220Z,31.85
2023-01-19T03:33:11.579Z,31.86
2023-01-19T03:35:16.298Z,31.98
2023-01-19T03:37:20.861Z,31.84
2023-01-19T03:39:25.173Z,31.77
2023-01-19T03:41:29.539Z,32.12
2023-01-19T03:43:33.853Z,31.82
2023-01-19T03:45:38.284Z,31.75
2023-01-19T03:47:42.632Z,31.68
2023-01-19T03:49:47.020Z,31.85
2023-01-19T03:51:51.340Z,31.72
2023-01-19T03:53:55.660Z,31.91
2023-01-19T03:56:00.052Z,31.97
2023-01-19T03:58:04.352Z,31.89
2023-01-19T04:00:08.695Z,31.91
2023-01-19T04:02:13.338Z,31.98
2023-01-19T04:04:17.676Z,32
2023-01-19T04:06:22.029Z,31.91
2023-01-19T04:08:26.365Z,31.87
2023-01-19T04:10:30.672Z,31.78
2023-01-19T04:12:35.013Z,31.98
2023-01-19T04:14:39.356Z,32
2023-01-19T04:16:43.678Z,31.83
2023-01-19T04:18:48.030Z,31.79
2023-01-19T04:20:52.436Z,31.79
2023-01-19T04:22:56.759Z,31.95
2023-01-19T04:25:01.084Z,31.92
2023-01-19T04:27:05.408Z,31.92
2023-01-19T04:29:09.729Z,31.85
2023-01-19T04:31:14.607Z,31.96
2023-01-19T04:33:18.985Z,31.99
2023-01-19T04:35:23.312Z,31.97
2023-01-19T04:37:27.625Z,32.06
2023-01-19T04:39:31.948Z,31.98
2023-01-19T04:41:36.308Z,31.84
2023-01-19T04:43:40.793Z,31.92
2023-01-19T04:45:45.119Z,32.2
2023-01-19T04:49:52.456Z,31.97
2023-01-19T04:51:56.780Z,31.89
2023-01-19T04:54:01.346Z,31.8
2023-01-19T04:56:05.987Z,31.96
2023-01-19T04:58:10.416Z,31.92
2023-01-19T05:00:14.743Z,31.83
2023-01-19T05:02:19.065Z,32.07
2023-01-19T05:04:23.676Z,31.98
2023-01-19T05:06:28.048Z,31.98
2023-01-19T05:08:32.367Z,31.8
2023-01-19T05:10:36.965Z,32.11
2023-01-19T05:12:41.313Z,32.04
2023-01-19T05:14:45.619Z,32.13
2023-01-19T05:16:49.980Z,31.97
2023-01-19T05:18:54.328Z,32.15
2023-01-19T05:20:58.676Z,32.18
2023-01-19T05:23:04.335Z,32.13
2023-01-19T05:25:08.698Z,32.36
2023-01-19T05:27:13.062Z,32.3
2023-01-19T05:29:17.384Z,32.21
2023-01-19T05:31:22.287Z,32.15
2023-01-19T05:33:26.655Z,32.21
2023-01-19T05:35:37.945Z,32.26
2023-01-19T05:37:42.273Z,32.27
2023-01-19T05:39:46.635Z,32.32
2023-01-19T05:41:50.961Z,32.37
2023-01-19T05:43:55.324Z,32.34
2023-01-19T05:45:59.669Z,32.37
2023-01-19T05:48:04.055Z,32.38
2023-01-19T05:50:08.392Z,32.42
2023-01-19T05:52:12.715Z,32.39
2023-01-19T05:54:17.070Z,32.33
2023-01-19T05:56:21.562Z,32.3
2023-01-19T05:58:26.001Z,32.33
2023-01-19T06:00:30.340Z,32.32
2023-01-19T06:02:34.704Z,32.51
2023-01-19T06:04:39.052Z,32.04
2023-01-19T06:06:43.371Z,32.6
2023-01-19T06:08:47.772Z,32.52
2023-01-19T06:10:52.097Z,32.4
2023-01-19T06:12:56.422Z,32.69
2023-01-19T06:15:00.773Z,32.71
2023-01-19T06:17:05.079Z,32.79
2023-01-19T06:19:09.847Z,32.81
2023-01-19T06:21:14.416Z,32.78
2023-01-19T06:23:18.780Z,32.82
2023-01-19T06:25:23.142Z,32.75
2023-01-19T06:27:27.501Z,32.62
2023-01-19T06:29:31.859Z,32.65
2023-01-19T06:31:36.426Z,32.91
2023-01-19T06:33:40.840Z,32.77
2023-01-19T06:35:45.160Z,32.71
2023-01-19T06:37:49.476Z,32.72
2023-01-19T06:39:53.831Z,32.64
2023-01-19T06:41:58.158Z,32.6
2023-01-19T06:44:02.601Z,32.63
2023-01-19T06:46:07.206Z,32.71
2023-01-19T06:48:11.528Z,32.76
2023-01-19T06:50:15.885Z,32.87
2023-01-19T06:52:20.314Z,32.85
2023-01-19T06:54:24.682Z,32.75
2023-01-19T06:56:29.719Z,32.81
2023-01-19T06:58:34.159Z,32.81
2023-01-19T07:00:38.704Z,32.86
2023-01-19T07:02:43.722Z,32.7
2023-01-19T07:04:48.211Z,32.98
2023-01-19T07:06:52.549Z,33.1
2023-01-19T07:08:56.883Z,33.05
2023-01-19T07:11:33.977Z,33.09
2023-01-19T07:13:38.432Z,33.05
2023-01-19T07:15:42.881Z,32.98
2023-01-19T07:17:47.520Z,32.92
2023-01-19T07:19:51.912Z,32.84
2023-01-19T07:21:56.242Z,32.98
2023-01-19T07:24:00.730Z,33.01
2023-01-19T07:26:05.114Z,33.02
2023-01-19T07:28:09.443Z,32.78
2023-01-19T07:30:13.807Z,33.01
2023-01-19T07:32:18.178Z,33.01
2023-01-19T07:34:22.618Z,33.05
2023-01-19T07:36:27.014Z,32.79
2023-01-19T07:38:31.368Z,32.99
2023-01-19T07:40:35.694Z,33.03
2023-01-19T07:42:40.149Z,32.96
2023-01-19T07:44:44.531Z,32.88
2023-01-19T07:46:48.926Z,32.72
2023-01-19T07:48:53.268Z,32.93
2023-01-19T07:50:57.589Z,32.9
2023-01-19T07:53:03.135Z,32.83
2023-01-19T07:55:08.055Z,32.83
2023-01-19T07:57:12.548Z,32.86
2023-01-19T07:59:16.861Z,32.85
2023-01-19T08:01:21.699Z,32.96
2023-01-19T08:03:26.187Z,32.9
2023-01-19T08:05:30.586Z,32.78
2023-01-19T08:07:34.919Z,33.08
2023-01-19T08:09:39.270Z,33.03
2023-01-19T08:11:43.668Z,33.05
2023-01-19T08:13:48.035Z,33.13
2023-01-19T08:15:52.641Z,33.02
2023-01-19T08:17:57.046Z,33.05
2023-01-19T08:20:01.420Z,33.12
2023-01-19T08:22:05.858Z,33.2
2023-01-19T08:24:10.396Z,33.28
2023-01-19T08:26:14.789Z,33.14
2023-01-19T08:28:19.242Z,33.11
2023-01-19T08:30:23.652Z,33.19
2023-01-19T08:32:28.256Z,33.13
2023-01-19T08:34:32.823Z,33.05
2023-01-19T08:36:37.290Z,33.12
2023-01-19T08:38:41.737Z,33.23
2023-01-19T08:40:46.113Z,33.15
2023-01-19T08:42:50.572Z,33.26
2023-01-19T08:45:00.362Z,33.22
2023-01-19T08:47:04.891Z,33.21
2023-01-19T08:49:09.200Z,33.23
2023-01-19T08:51:13.576Z,33.26
2023-01-19T08:53:17.962Z,33.3
2023-01-19T08:55:22.353Z,33.25
2023-01-19T08:57:26.737Z,33.42
2023-01-19T08:59:31.129Z,33.32
2023-01-19T09:01:36.082Z,33.34
2023-01-19T09:03:40.657Z,33.45
2023-01-19T09:05:45.179Z,32.2
2023-01-19T09:07:49.561Z,33.07
2023-01-19T09:09:53.915Z,32.96
2023-01-19T09:11:58.241Z,32.58
2023-01-19T09:14:02.633Z,32.71
2023-01-19T09:16:07.181Z,32.68
2023-01-19T09:18:11.583Z,32.77
2023-01-19T09:20:15.887Z,32.4
2023-01-19T09:22:20.229Z,32.39
2023-01-19T09:24:24.559Z,32.44
2023-01-19T09:26:28.916Z,32.49
2023-01-19T09:28:33.301Z,32.53
2023-01-19T09:30:37.857Z,32.5
2023-01-19T09:32:42.321Z,32.33
2023-01-19T09:34:46.714Z,32.57
2023-01-19T09:36:51.080Z,32.58
2023-01-19T09:38:55.450Z,32.76
2023-01-19T09:40:59.827Z,32.48
2023-01-19T09:43:04.208Z,32.41
2023-01-19T09:45:09.979Z,32.42
2023-01-19T09:47:15.325Z,32.37
2023-01-19T09:49:19.645Z,32.56
2023-01-19T09:51:24.078Z,32.1
2023-01-19T09:53:28.429Z,31.57
2023-01-19T09:55:32.780Z,31.24
2023-01-19T09:57:37.157Z,31.51
2023-01-19T09:59:41.484Z,31.7
2023-01-19T10:01:46.018Z,31.94
2023-01-19T10:03:50.442Z,31.97
2023-01-19T10:05:54.904Z,32.04
2023-01-19T10:08:00.201Z,32.2
2023-01-19T10:10:04.779Z,32.12
2023-01-19T10:12:09.105Z,32.21
2023-01-19T10:14:13.472Z,32.13
2023-01-19T10:16:18.099Z,32.05
2023-01-19T10:18:22.527Z,32.12
2023-01-19T10:20:26.835Z,31.95
2023-01-19T10:22:31.351Z,32.15
2023-01-19T10:24:35.747Z,32.11
2023-01-19T10:26:40.187Z,32.01
2023-01-19T10:28:44.647Z,32.03
2023-01-19T10:30:49.100Z,31.99
2023-01-19T10:32:53.442Z,31.95
2023-01-19T10:35:00.723Z,31.97
2023-01-19T10:37:05.277Z,32.09
2023-01-19T10:39:09.979Z,31.83
2023-01-19T10:41:14.483Z,32.02
2023-01-19T10:43:19.050Z,32.04
2023-01-19T10:45:23.709Z,32.14
2023-01-19T10:47:28.214Z,32.12
2023-01-19T10:49:32.723Z,32.25
2023-01-19T10:51:37.297Z,32.34
2023-01-19T10:53:41.738Z,32.35
2023-01-19T10:55:46.130Z,32.56
2023-01-19T10:57:50.611Z,32.56
2023-01-19T10:59:55.077Z,32.59
2023-01-19T11:02:00.250Z,32.65
2023-01-19T11:04:04.797Z,32.59
2023-01-19T11:06:09.194Z,32.61
2023-01-19T11:08:13.668Z,32.46
2023-01-19T11:10:18.576Z,32.43
2023-01-19T11:12:23.091Z,32.55
2023-01-19T11:14:28.626Z,32.55
2023-01-19T11:16:33.247Z,32.56
2023-01-19T11:18:37.575Z,32.46
2023-01-19T11:20:41.950Z,32.34
2023-01-19T11:22:48.821Z,32.39
2023-01-19T11:24:53.239Z,32.47
2023-01-19T11:26:57.642Z,31.99
2023-01-19T11:29:02.061Z,32.22
2023-01-19T11:31:06.647Z,32.16
2023-01-19T11:33:11.024Z,32.16
2023-01-19T11:35:15.378Z,32.24
2023-01-19T11:37:19.738Z,32.13
2023-01-19T11:39:24.092Z,32.22
2023-01-19T11:41:28.469Z,32.3
2023-01-19T11:43:50.585Z,32.34
2023-01-19T11:45:55.131Z,32.59
2023-01-19T11:47:59.862Z,32.33
2023-01-19T11:50:04.549Z,32.19
2023-01-19T11:52:08.892Z,32.23
2023-01-19T11:54:13.220Z,32.2
2023-01-19T11:56:17.568Z,32.28
2023-01-19T11:58:21.966Z,32.68
2023-01-19T12:00:26.356Z,32.54
2023-01-19T12:02:30.916Z,32.42
2023-01-19T12:04:35.363Z,32.54
2023-01-19T12:06:39.701Z,32.95
2023-01-19T12:08:44.113Z,32.76
2023-01-19T12:10:48.443Z,32.9
2023-01-19T12:12:52.894Z,32.5
2023-01-19T12:14:57.238Z,32.41
2023-01-19T12:17:01.589Z,32.38
2023-01-19T12:19:05.973Z,32.26
2023-01-19T12:21:10.397Z,32.29
2023-01-19T12:23:14.771Z,32.39
2023-01-19T12:25:19.217Z,32.13
2023-01-19T12:27:23.591Z,31.96
2023-01-19T12:29:28.118Z,31.97
2023-01-19T12:31:33.025Z,31.74
2023-01-19T12:33:37.507Z,31.98
2023-01-19T12:35:41.906Z,31.71
2023-01-19T12:37:46.327Z,31.56
2023-01-19T12:39:50.972Z,31.55
2023-01-19T12:41:55.596Z,31.58
2023-01-19T12:43:59.934Z,32.06
2023-01-19T12:46:04.569Z,31.92
2023-01-19T12:48:08.910Z,31.83
2023-01-19T12:50:13.385Z,31.95
2023-01-19T12:52:17.844Z,31.82
2023-01-19T12:54:23.321Z,31.67
2023-01-19T12:56:27.672Z,31.69
2023-01-19T12:58:31.992Z,31.75
2023-01-19T13:00:36.491Z,31.67
2023-01-19T13:02:41.302Z,31.4
2023-01-19T13:04:45.651Z,31.45
2023-01-19T13:06:50.113Z,31.47
2023-01-19T13:08:54.502Z,31.48
2023-01-19T13:10:58.873Z,31.48
2023-01-19T13:13:03.222Z,31.38
2023-01-19T13:15:07.570Z,31.33
2023-01-19T13:17:11.921Z,31.38
2023-01-19T13:19:16.319Z,31.53
2023-01-19T13:21:20.760Z,31.58
2023-01-19T13:23:25.112Z,31.48
2023-01-19T13:25:29.522Z,31.63
2023-01-19T13:27:33.869Z,31.83
2023-01-19T13:29:38.208Z,31.98
2023-01-19T13:31:42.874Z,31.32
2023-01-19T13:33:47.365Z,31.17
2023-01-19T13:35:51.741Z,31.11
2023-01-19T13:37:56.115Z,31.16
2023-01-19T13:40:01.767Z,31.2
2023-01-19T13:42:06.583Z,31.37
2023-01-19T13:44:10.960Z,31.19
2023-01-19T13:46:15.482Z,31.21
2023-01-19T13:48:19.841Z,31.5
2023-01-19T13:50:24.198Z,31.51
2023-01-19T13:52:28.775Z,31.56
2023-01-19T13:54:33.155Z,31.47
2023-01-19T13:56:37.615Z,31.34
2023-01-19T13:58:42.145Z,31.31
2023-01-19T14:00:46.707Z,31.32
2023-01-19T14:02:51.469Z,31.41
2023-01-19T14:04:55.901Z,31.17
2023-01-19T14:07:00.275Z,31.22
2023-01-19T14:09:04.604Z,31.12
2023-01-19T14:11:09.154Z,31.29
2023-01-19T14:13:13.683Z,30.73
2023-01-19T14:15:18.185Z,30.79
2023-01-19T14:17:22.622Z,31.23
2023-01-19T14:19:27.273Z,31.23
2023-01-19T14:21:31.713Z,30.94
2023-01-19T14:23:36.084Z,30.88
2023-01-19T14:25:40.458Z,30.81
2023-01-19T14:27:44.782Z,30.74
2023-01-19T14:29:49.157Z,30.71
2023-01-19T14:31:53.480Z,30.73
2023-01-19T14:33:57.853Z,30.72
2023-01-19T14:36:02.189Z,30.7
2023-01-19T14:38:06.581Z,30.72
2023-01-19T14:40:11.150Z,30.71
2023-01-19T14:42:18.551Z,30.69
2023-01-19T14:44:22.920Z,30.7
2023-01-19T14:46:27.575Z,30.74
2023-01-19T14:48:31.961Z,30.74
2023-01-19T14:50:36.356Z,30.75
2023-01-19T14:52:40.700Z,30.77
2023-01-19T14:54:45.045Z,30.8
2023-01-19T14:56:49.338Z,30.79
2023-01-19T14:58:53.685Z,30.78
2023-01-19T15:00:58.598Z,30.75
2023-01-19T15:03:02.941Z,30.79
2023-01-19T15:05:08.279Z,30.77
2023-01-19T15:07:12.790Z,30.7
2023-01-19T15:09:17.172Z,30.71
2023-01-19T15:11:21.734Z,30.69
2023-01-19T15:13:26.408Z,30.76
2023-01-19T15:15:30.908Z,30.73
2023-01-19T15:17:35.366Z,30.76
2023-01-19T15:19:39.740Z,30.77
2023-01-19T15:21:44.256Z,30.79
2023-01-19T15:23:48.780Z,30.8
2023-01-19T15:25:53.175Z,31.23
2023-01-19T15:27:57.566Z,31.28
2023-01-19T15:30:02.038Z,31.18
2023-01-19T15:32:06.584Z,31.16
2023-01-19T15:34:10.923Z,31.23
2023-01-19T15:36:18.666Z,31.49
2023-01-19T15:38:23.075Z,31.59
2023-01-19T15:40:27.647Z,31.36
2023-01-19T15:42:32.017Z,31.42
2023-01-19T15:44:36.457Z,31.32
2023-01-19T15:46:40.983Z,31.21
2023-01-19T15:48:45.357Z,31.57
2023-01-19T15:50:49.795Z,31.45
2023-01-19T15:52:54.174Z,31.31
2023-01-19T15:54:58.505Z,31.31
2023-01-19T15:57:03.023Z,31.19
2023-01-19T15:59:07.423Z,31.22
2023-01-19T16:01:12.115Z,31.18
2023-01-19T16:03:16.501Z,31.19
2023-01-19T16:05:25.942Z,31.12
2023-01-19T16:07:32.491Z,30.94
2023-01-19T16:09:36.928Z,31.13
2023-01-19T16:11:41.278Z,31.18
2023-01-19T16:13:45.692Z,31.52
2023-01-19T16:15:50.192Z,31.51
2023-01-19T16:17:54.600Z,31.2
2023-01-19T16:19:59.022Z,31.11
2023-01-19T16:22:03.595Z,30.98
2023-01-19T16:24:07.948Z,31.15
2023-01-19T16:26:12.336Z,31.07
2023-01-19T16:28:16.663Z,30.98
2023-01-19T16:30:21.197Z,31.07
2023-01-19T16:32:25.652Z,31.01
2023-01-19T16:34:30.128Z,31.42
2023-01-19T16:36:34.540Z,31.23
2023-01-19T16:38:38.860Z,31.54
2023-01-19T16:40:43.293Z,31.1
2023-01-19T16:42:47.655Z,31.05
2023-01-19T16:44:52.098Z,31.04
2023-01-19T16:46:56.520Z,31.04
2023-01-19T16:49:01.040Z,31.09
2023-01-19T16:51:05.518Z,31.05
2023-01-19T16:53:09.985Z,31.12
2023-01-19T16:55:14.458Z,31.09
2023-01-19T16:57:18.879Z,31.23
2023-01-19T16:59:23.388Z,31.12
2023-01-19T17:01:28.297Z,31.16
2023-01-19T17:03:32.748Z,31.18
2023-01-19T17:05:37.351Z,31.15
2023-01-19T17:07:41.787Z,31.18
2023-01-19T17:09:46.122Z,31.16
2023-01-19T17:11:50.542Z,31.22
2023-01-19T17:13:54.914Z,31.22
2023-01-19T17:15:59.311Z,31.18
2023-01-19T17:18:03.669Z,31.35
2023-01-19T17:20:08.048Z,31.31
2023-01-19T17:22:12.435Z,31.32
2023-01-19T17:24:16.776Z,31.37
2023-01-19T17:26:21.110Z,31.47
2023-01-19T17:28:25.461Z,31.29
2023-01-19T17:30:30.253Z,31.65
2023-01-19T17:32:34.785Z,31.3
2023-01-19T17:34:39.109Z,31.11
2023-01-19T17:36:43.593Z,31.28
2023-01-19T17:38:47.964Z,30.94
2023-01-19T17:40:52.284Z,31.21
2023-01-19T17:42:56.595Z,31.36
2023-01-19T17:45:00.964Z,31.3
2023-01-19T17:47:05.267Z,31.21
2023-01-19T17:49:09.764Z,31.11
2023-01-19T17:51:14.236Z,31.1
2023-01-19T17:53:18.555Z,31.23
2023-01-19T17:55:22.923Z,31.17
2023-01-19T17:57:27.370Z,31.45
2023-01-19T17:59:31.741Z,31.58
2023-01-19T18:01:36.388Z,31.33
2023-01-19T18:03:40.793Z,31.64
2023-01-19T18:05:45.178Z,31.76
2023-01-19T18:07:49.526Z,32.5
2023-01-19T18:09:53.884Z,32.34
2023-01-19T18:11:58.227Z,32.85
2023-01-19T18:14:02.665Z,33.08
2023-01-19T18:16:07.574Z,33.08
2023-01-19T18:18:11.985Z,33.48
2023-01-19T18:20:16.830Z,33.94
2023-01-19T18:22:21.315Z,34.72
2023-01-19T18:24:25.671Z,34.98
2023-01-19T18:26:30.024Z,34.08
2023-01-19T18:28:34.489Z,35
2023-01-19T18:30:39.080Z,35.23
2023-01-19T18:32:43.553Z,35.14
2023-01-19T18:34:47.941Z,35.05
2023-01-19T18:36:52.289Z,35.35
2023-01-19T18:38:56.718Z,35.4
2023-01-19T18:41:01.134Z,35.34
2023-01-19T18:43:05.515Z,35.08
2023-01-19T18:45:09.897Z,35.81
2023-01-19T18:47:14.275Z,35.25
2023-01-19T18:49:18.639Z,35.27
2023-01-19T18:51:23.132Z,35.58
2023-01-19T18:53:27.488Z,35.13
2023-01-19T18:55:31.906Z,35.26
2023-01-19T18:57:36.280Z,34.73
2023-01-19T18:59:40.639Z,34.37
2023-01-19T19:01:45.490Z,34.72
2023-01-19T19:03:50.014Z,34.19
2023-01-19T19:05:54.633Z,34.68
2023-01-19T19:07:59.077Z,34.27
2023-01-19T19:10:03.648Z,34.42
2023-01-19T19:12:08.202Z,34.28
2023-01-19T19:14:12.642Z,34.08
2023-01-19T19:16:17.352Z,34.41
2023-01-19T19:18:21.787Z,34.06
2023-01-19T19:20:26.120Z,33.57
2023-01-19T19:22:30.597Z,33.42
2023-01-19T19:24:34.976Z,33.29
2023-01-19T19:26:39.345Z,33.13
2023-01-19T19:28:43.691Z,33.43
2023-01-19T19:30:48.255Z,33.7
2023-01-19T19:32:52.684Z,33.9
2023-01-19T19:34:57.148Z,33.63
2023-01-19T19:37:03.336Z,33.54
2023-01-19T19:39:07.758Z,33.41
2023-01-19T19:41:12.152Z,33.13
2023-01-19T19:43:16.666Z,33.09
2023-01-19T19:45:21.132Z,33.15
2023-01-19T19:47:25.573Z,32.99
2023-01-19T19:49:29.971Z,32.81
2023-01-19T19:51:34.475Z,33.34
2023-01-19T19:53:38.833Z,32.74
2023-01-19T19:55:43.397Z,32.76
2023-01-19T19:57:47.810Z,32.29
2023-01-19T19:59:52.240Z,32.7
2023-01-19T20:01:56.961Z,32.49
2023-01-19T20:04:01.356Z,32.33
2023-01-19T20:06:05.679Z,32.82
2023-01-19T20:08:10.139Z,32.65
2023-01-19T20:10:15.353Z,32.51
2023-01-19T20:12:19.845Z,32.62
2023-01-19T20:14:24.226Z,32.56
2023-01-19T20:16:29.010Z,32.62
2023-01-19T20:18:33.433Z,32.43
2023-01-19T20:20:37.789Z,32.73
2023-01-19T20:22:42.200Z,32.96
2023-01-19T20:24:46.639Z,32.77
2023-01-19T20:26:51.035Z,32.85
2023-01-19T20:28:55.449Z,32.78
2023-01-19T20:30:59.924Z,32.87
2023-01-19T20:33:04.360Z,33.06
2023-01-19T20:35:08.712Z,33.12
2023-01-19T20:37:13.135Z,33.16
2023-01-19T20:39:17.577Z,33.07
2023-01-19T20:41:22.071Z,33.1
2023-01-19T20:43:26.451Z,33.26
2023-01-19T20:45:31.024Z,33.48
2023-01-19T20:47:35.433Z,33.63
2023-01-19T20:49:39.847Z,33.21
2023-01-19T20:51:44.414Z,33.56
2023-01-19T20:53:48.844Z,33.19
2023-01-19T20:55:53.307Z,33.79
2023-01-19T20:57:57.663Z,34.01
2023-01-19T21:00:02.219Z,34.04
2023-01-19T21:02:06.856Z,34.1
2023-01-19T21:04:11.534Z,34.33
2023-01-19T21:06:15.996Z,34.11
2023-01-19T21:08:20.340Z,34.14
2023-01-19T21:10:24.708Z,34.05
2023-01-19T21:12:29.126Z,34.06
2023-01-19T21:14:33.495Z,33.44
2023-01-19T21:16:38.154Z,33.49
2023-01-19T21:18:42.512Z,34.09
2023-01-19T21:20:46.938Z,34.08
2023-01-19T21:22:51.465Z,34.03
2023-01-19T21:24:55.958Z,34.55
2023-01-19T21:27:00.475Z,34.62
2023-01-19T21:29:04.944Z,30.41
2023-01-19T21:31:09.308Z,28.94
2023-01-19T21:33:13.768Z,28.12
2023-01-19T21:35:18.223Z,26.91
2023-01-19T21:37:22.521Z,26.51
2023-01-19T21:39:26.983Z,25.57
2023-01-19T21:41:31.371Z,25.35
2023-01-19T21:43:35.791Z,25.08
2023-01-19T21:45:43.277Z,24.91
2023-01-19T21:47:47.690Z,25.09
2023-01-19T21:49:52.032Z,24.8
2023-01-19T21:51:56.359Z,24.96
2023-01-19T21:54:00.847Z,24.56
2023-01-19T21:56:05.180Z,24.54
2023-01-19T21:58:09.543Z,24.34
2023-01-19T22:00:14.053Z,24.31
2023-01-19T22:02:39.742Z,25.26
2023-01-19T22:04:44.209Z,27
2023-01-19T22:06:48.598Z,27.03
2023-01-19T22:08:52.946Z,27.27
2023-01-19T22:10:57.352Z,27.36
2023-01-19T22:13:01.667Z,27.58
2023-01-19T22:15:05.976Z,27.7
2023-01-19T22:17:10.333Z,27.95
2023-01-19T22:19:14.772Z,28
2023-01-19T22:21:19.156Z,28.03
2023-01-19T22:23:23.510Z,28.31
2023-01-19T22:25:27.929Z,28.41
2023-01-19T22:27:32.331Z,28.43
2023-01-19T22:29:36.832Z,28.62
2023-01-19T22:31:41.563Z,28.53
2023-01-19T22:33:45.975Z,28.77
2023-01-19T22:35:50.310Z,28.83
2023-01-19T22:37:54.703Z,28.79
2023-01-19T22:39:59.251Z,28.94
2023-01-19T22:42:03.611Z,28.82
2023-01-19T22:44:08.130Z,28.99
2023-01-19T22:46:12.714Z,28.96
2023-01-19T22:48:17.190Z,29.46
2023-01-19T22:50:21.512Z,29.04
2023-01-19T22:52:25.840Z,29.59
2023-01-19T22:54:30.170Z,29.51
2023-01-19T22:56:34.511Z,29.5
2023-01-19T22:58:38.850Z,29.73
2023-01-19T23:00:43.204Z,29.78
2023-01-19T23:02:47.612Z,29.32
2023-01-19T23:04:52.095Z,29.31
2023-01-19T23:06:56.608Z,29.48
2023-01-19T23:09:00.997Z,29.28
2023-01-19T23:11:05.342Z,29.84
2023-01-19T23:13:09.832Z,29.72
2023-01-19T23:15:15.270Z,30.18
2023-01-19T23:17:19.741Z,30.15
2023-01-19T23:19:24.099Z,30.08
2023-01-19T23:21:28.444Z,30.31
2023-01-19T23:23:32.862Z,30.41
2023-01-19T23:25:37.308Z,30.39
2023-01-19T23:27:41.710Z,30.74
2023-01-19T23:29:46.118Z,30.28
2023-01-19T23:31:50.448Z,30.16
2023-01-19T23:33:54.795Z,30.99
2023-01-19T23:35:59.216Z,30.92
2023-01-19T23:38:03.532Z,31.08
2023-01-19T23:40:07.889Z,31.51
2023-01-19T23:42:12.243Z,31.29
2023-01-19T23:44:16.640Z,31.14
2023-01-19T23:46:21.201Z,31.37
2023-01-19T23:48:25.524Z,31.63
2023-01-19T23:50:29.914Z,31.26
2023-01-19T23:52:34.244Z,31.39
2023-01-19T23:54:38.628Z,31.4
2023-01-19T23:56:42.986Z,31.63
2023-01-19T23:58:47.513Z,31.65
